Time;durP1;ratioP1;P1;durP2;ratioP2;P2;SDS_P1;SDS_P2;PMS_P1;PMS_P2;Temp;Humidity;BMP_temperature;BMP_pressure;BME280_temperature;BME280_humidity;BME280_pressure;Samples;Min_cycle;Max_cycle;Signal;HPM_P1;HPM_P2
2022/09/08 00:01:12;;;;;;;10.20;5.80;;;;;;;13.38;62.34;98292.08;105228;1281;137736;-68
2022/09/08 00:03:39;;;;;;;10.80;6.20;;;;;;;13.36;62.36;98291.73;105361;1281;24316;-67
2022/09/08 00:06:16;;;;;;;10.70;6.20;;;;;;;13.34;62.37;98294.80;105255;1280;137889;-68
2022/09/08 00:08:45;;;;;;;11.30;6.30;;;;;;;13.34;62.49;98300.55;105383;1281;22580;-68
2022/09/08 00:11:21;;;;;;;11.40;6.00;;;;;;;13.32;62.34;98304.75;105374;1281;23931;-68
2022/09/08 00:13:49;;;;;;;12.80;5.90;;;;;;;13.32;62.94;98314.33;105136;1281;137676;-68
2022/09/08 00:16:20;;;;;;;10.10;6.00;;;;;;;13.32;62.97;98314.48;105338;1281;25367;-68
2022/09/08 00:18:50;;;;;;;12.60;5.60;;;;;;;13.34;62.84;98317.27;105234;1281;138359;-68
2022/09/08 00:21:19;;;;;;;10.70;5.70;;;;;;;13.36;63.37;98316.05;105356;1281;22558;-68
2022/09/08 00:23:45;;;;;;;11.10;5.50;;;;;;;13.39;63.27;98310.81;105439;1281;23186;-68
2022/09/08 00:26:12;;;;;;;11.40;6.10;;;;;;;13.43;63.38;98301.63;105228;1281;137870;-68
2022/09/08 00:28:39;;;;;;;12.40;6.60;;;;;;;13.47;64.11;98301.80;105254;1283;22526;-68
2022/09/08 00:31:06;;;;;;;10.10;6.30;;;;;;;13.51;64.30;98307.34;105229;1281;137638;-68
2022/09/08 00:33:33;;;;;;;10.80;5.80;;;;;;;13.54;64.22;98311.99;105357;1281;25619;-68
2022/09/08 00:36:03;;;;;;;13.30;6.20;;;;;;;13.56;63.60;98312.33;105213;1281;138553;-68
2022/09/08 00:38:31;;;;;;;14.00;6.50;;;;;;;13.55;63.55;98307.30;105312;1281;22722;-68
2022/09/08 00:40:59;;;;;;;11.20;6.40;;;;;;;13.54;63.55;98299.91;104070;1282;1673567;-68
2022/09/08 00:43:32;;;;;;;9.80;5.40;;;;;;;13.53;63.45;98297.92;105246;1281;138087;-68
2022/09/08 00:46:21;;;;;;;11.80;5.90;;;;;;;13.50;63.71;98297.82;105331;1281;22572;-68
2022/09/08 00:48:52;;;;;;;12.90;6.30;;;;;;;13.46;63.32;98296.48;105077;1282;137702;-68
2022/09/08 00:51:22;;;;;;;9.80;6.10;;;;;;;13.43;63.59;98288.27;105375;1281;24476;-68
2022/09/08 00:53:49;;;;;;;11.30;6.00;;;;;;;13.41;63.64;98282.41;105982;1280;22542;-68
2022/09/08 00:56:17;;;;;;;8.60;5.30;;;;;;;13.40;63.72;98285.53;105428;1280;139657;-68
2022/09/08 00:58:45;;;;;;;14.80;6.60;;;;;;;13.37;63.78;98288.91;105398;1280;22629;-68
2022/09/08 01:01:12;;;;;;;11.80;6.40;;;;;;;13.34;63.60;98295.46;105180;1281;22580;-68
2022/09/08 01:03:41;;;;;;;11.20;6.10;;;;;;;13.29;64.04;98295.59;105387;1280;25352;-68
2022/09/08 01:12:43;;;;;;;11.20;6.50;;;;;;;13.21;64.13;98294.60;105629;1281;23364;-69
2022/09/08 01:12:46;;;;;;;9.10;5.70;;;;;;;13.10;64.72;98292.91;104512;1287;138049;-69
2022/09/08 01:15:19;;;;;;;10.50;5.60;;;;;;;13.09;64.73;98294.59;104791;1288;24464;-69
2022/09/08 01:17:49;;;;;;;12.20;5.50;;;;;;;13.13;64.45;98297.84;105011;1289;30341;-67
2022/09/08 01:20:20;;;;;;;14.40;6.40;;;;;;;13.15;64.54;98290.36;104689;1288;138400;-71
2022/09/08 01:23:15;;;;;;;10.80;6.50;;;;;;;13.17;65.00;98291.23;104783;1287;22666;-68
2022/09/08 01:25:53;;;;;;;11.90;6.00;;;;;;;13.18;65.39;98290.11;104651;1287;137923;-69
2022/09/08 01:28:29;;;;;;;13.50;6.30;;;;;;;13.18;65.41;98289.07;104793;1287;30421;-67
2022/09/08 01:30:57;;;;;;;10.80;6.40;;;;;;;13.15;65.11;98283.74;104829;1286;137956;-67
2022/09/08 01:33:24;;;;;;;12.80;6.00;;;;;;;13.12;64.74;98281.23;104781;1287;22609;-67
2022/09/08 01:35:50;;;;;;;13.40;6.10;;;;;;;13.10;64.70;98283.27;104751;1289;23136;-67
2022/09/08 01:38:17;;;;;;;18.10;5.90;;;;;;;13.07;64.85;98282.78;105063;1288;137958;-68
2022/09/08 01:40:44;;;;;;;12.20;6.30;;;;;;;13.04;64.48;98284.94;105514;1287;22560;-68
2022/09/08 01:43:12;;;;;;;11.00;6.20;;;;;;;13.00;64.85;98282.30;105264;1287;137807;-67
2022/09/08 01:45:40;;;;;;;12.70;6.50;;;;;;;12.97;64.73;98282.71;104876;1287;24268;-67
2022/09/08 01:48:08;;;;;;;17.80;6.90;;;;;;;12.93;65.11;98280.95;105434;1287;22567;-69
2022/09/08 01:50:36;;;;;;;14.10;6.30;;;;;;;12.87;65.10;98276.05;105874;1280;137801;-67
2022/09/08 01:53:03;;;;;;;12.10;6.10;;;;;;;12.82;64.94;98279.09;105989;1280;22717;-67
2022/09/08 01:55:30;;;;;;;9.90;5.70;;;;;;;12.77;64.78;98279.48;105963;1280;138357;-68
2022/09/08 01:57:57;;;;;;;11.70;5.60;;;;;;;12.73;65.03;98280.02;106204;1280;22556;-68
2022/09/08 02:00:24;;;;;;;17.10;6.60;;;;;;;12.72;65.29;98284.55;105416;1280;138284;-67
2022/09/08 02:02:51;;;;;;;12.70;6.60;;;;;;;12.70;65.63;98282.66;105593;1280;22591;-68
2022/09/08 02:05:17;;;;;;;12.60;6.40;;;;;;;12.68;65.15;98278.77;105559;1280;24386;-67
2022/09/08 02:07:44;;;;;;;13.00;5.90;;;;;;;12.67;65.69;98274.52;105245;1280;137862;-67
2022/09/08 02:10:11;;;;;;;16.10;6.10;;;;;;;12.65;65.94;98272.91;105405;1280;22560;-67
2022/09/08 02:12:38;;;;;;;13.80;6.00;;;;;;;12.61;65.98;98275.73;105211;1280;137887;-67
2022/09/08 02:15:06;;;;;;;9.50;6.20;;;;;;;12.58;65.99;98279.96;105317;1280;22531;-70
2022/09/08 02:17:33;;;;;;;12.10;6.50;;;;;;;12.56;66.45;98276.39;105266;1281;22566;-69
2022/09/08 02:19:59;;;;;;;10.90;6.40;;;;;;;12.57;66.31;98274.44;105311;1280;137717;-70
2022/09/08 02:22:26;;;;;;;11.40;6.20;;;;;;;12.57;66.68;98269.85;105349;1280;22740;-70
2022/09/08 02:24:53;;;;;;;10.10;5.50;;;;;;;12.56;66.87;98263.67;105324;1280;138297;-70
2022/09/08 02:27:20;;;;;;;10.40;5.80;;;;;;;12.56;66.69;98258.42;105359;1280;25472;-70
2022/09/08 02:29:49;;;;;;;13.60;6.70;;;;;;;12.56;66.85;98251.70;105338;1280;22697;-70
2022/09/08 02:32:15;;;;;;;13.90;6.30;;;;;;;12.53;66.65;98250.38;105266;1280;137810;-70
2022/09/08 02:34:42;;;;;;;12.60;6.20;;;;;;;12.50;66.64;98251.39;105333;1281;22767;-69
2022/09/08 02:37:09;;;;;;;10.20;6.00;;;;;;;12.48;66.64;98251.98;105214;1281;137672;-72
2022/09/08 02:39:36;;;;;;;11.00;6.00;;;;;;;12.46;66.61;98246.61;105341;1281;25522;-70
2022/09/08 02:42:03;;;;;;;9.80;5.80;;;;;;;12.45;67.01;98245.69;105365;1281;25431;-70
2022/09/08 02:44:30;;;;;;;13.60;6.10;;;;;;;12.43;67.31;98246.98;105229;1281;137338;-70
2022/09/08 02:46:57;;;;;;;9.40;5.90;;;;;;;12.40;67.25;98247.98;105348;1281;22538;-70
2022/09/08 02:49:23;;;;;;;12.30;6.20;;;;;;;12.38;67.22;98252.06;105224;1281;137419;-70
2022/09/08 02:51:50;;;;;;;10.80;5.70;;;;;;;12.34;66.97;98249.15;105344;1281;22560;-70
2022/09/08 02:54:17;;;;;;;15.90;7.00;;;;;;;12.32;67.26;98254.71;105234;1281;138275;-70
2022/09/08 02:56:44;;;;;;;11.70;6.30;;;;;;;12.31;67.65;98249.79;105332;1281;22560;-70
2022/09/08 02:59:11;;;;;;;14.00;6.60;;;;;;;12.31;67.27;98246.83;105337;1281;22627;-70
2022/09/08 03:01:38;;;;;;;12.80;6.20;;;;;;;12.29;67.72;98245.56;105255;1281;137774;-69
2022/09/08 03:04:05;;;;;;;13.00;6.00;;;;;;;12.29;67.83;98251.40;105353;1281;24270;-70
2022/09/08 03:06:32;;;;;;;12.00;6.00;;;;;;;12.27;67.76;98248.60;105225;1281;137805;-69
2022/09/08 03:08:59;;;;;;;12.70;6.30;;;;;;;12.25;67.73;98242.09;105323;1281;24439;-70
2022/09/08 03:11:27;;;;;;;15.40;7.20;;;;;;;12.23;67.98;98236.67;105333;1281;22564;-70
2022/09/08 03:13:54;;;;;;;13.40;5.80;;;;;;;12.20;68.13;98232.94;105211;1281;138352;-70
2022/09/08 03:16:21;;;;;;;10.70;5.50;;;;;;;12.17;68.39;98228.44;105325;1281;24100;-70
2022/09/08 03:18:48;;;;;;;10.20;6.10;;;;;;;12.15;67.68;98226.66;105249;1281;138962;-69
2022/09/08 03:21:16;;;;;;;13.70;6.70;;;;;;;12.10;67.81;98224.34;105349;1280;25316;-70
2022/09/08 03:23:43;;;;;;;11.10;6.30;;;;;;;12.07;67.81;98225.14;105446;1280;22889;-69
2022/09/08 03:26:13;;;;;;;12.80;6.60;;;;;;;12.06;67.93;98223.98;105354;1281;137652;-70
2022/09/08 03:28:42;;;;;;;12.70;6.70;;;;;;;12.04;68.07;98223.58;105489;1281;25380;-69
2022/09/08 03:31:12;;;;;;;12.20;6.50;;;;;;;12.01;67.99;98221.75;105572;1281;137653;-70
2022/09/08 03:33:40;;;;;;;12.00;6.50;;;;;;;11.94;67.80;98219.79;105651;1280;24488;-70
2022/09/08 03:36:09;;;;;;;12.10;6.10;;;;;;;11.89;68.35;98221.19;105517;1280;24154;-70
2022/09/08 03:38:36;;;;;;;11.30;6.80;;;;;;;11.86;68.35;98213.96;105495;1280;137791;-70
2022/09/08 03:41:09;;;;;;;13.20;5.90;;;;;;;11.83;68.58;98211.73;105372;1280;22556;-70
2022/09/08 03:43:36;;;;;;;10.30;5.90;;;;;;;11.82;68.65;98216.77;105430;1281;138395;-69
2022/09/08 03:46:07;;;;;;;13.40;7.10;;;;;;;11.83;68.53;98218.73;105345;1281;22641;-69
2022/09/08 03:48:35;;;;;;;9.50;6.10;;;;;;;11.84;68.72;98220.42;105435;1281;138820;-70
2022/09/08 03:51:28;;;;;;;13.30;6.30;;;;;;;11.84;68.96;98221.36;105448;1281;22569;-69
2022/09/08 03:54:46;;;;;;;11.10;6.00;;;;;;;11.86;69.08;98220.83;105483;1281;22732;-69
2022/09/08 03:56:45;;;;;;;14.00;6.80;;;;;;;11.84;68.67;98221.29;105731;1281;24339;-69
2022/09/08 03:59:12;;;;;;;12.60;6.60;;;;;;;11.82;68.96;98220.79;105522;1281;22559;-69
2022/09/08 04:01:39;;;;;;;10.10;6.20;;;;;;;11.77;68.92;98226.09;105262;1281;137878;-69
2022/09/08 04:04:06;;;;;;;15.10;6.00;;;;;;;11.71;69.25;98227.52;105371;1281;24363;-69
2022/09/08 04:06:34;;;;;;;14.60;6.20;;;;;;;11.68;69.34;98234.84;105295;1281;139377;-69
2022/09/08 04:09:01;;;;;;;10.30;6.60;;;;;;;11.70;69.21;98236.39;105349;1281;22557;-69
2022/09/08 04:11:28;;;;;;;14.00;6.70;;;;;;;11.70;69.39;98236.11;105314;1281;22556;-69
2022/09/08 04:13:55;;;;;;;9.30;5.90;;;;;;;11.72;69.43;98241.86;105258;1281;137934;-68
2022/09/08 04:16:21;;;;;;;10.20;6.40;;;;;;;11.74;69.40;98241.24;105369;1281;24365;-69
2022/09/08 04:18:48;;;;;;;12.50;6.60;;;;;;;11.76;69.48;98237.65;105276;1280;137858;-69
2022/09/08 04:21:15;;;;;;;11.00;6.60;;;;;;;11.76;69.27;98236.56;105344;1281;24122;-69
2022/09/08 04:23:42;;;;;;;15.20;6.60;;;;;;;11.74;69.50;98235.18;105323;1281;24240;-69
2022/09/08 04:26:13;;;;;;;14.00;7.50;;;;;;;11.73;69.47;98232.55;105207;1281;137812;-69
2022/09/08 04:28:40;;;;;;;17.00;6.80;;;;;;;11.69;69.51;98227.92;105720;1281;24234;-69
2022/09/08 04:31:10;;;;;;;11.90;6.80;;;;;;;11.68;69.62;98224.64;106001;1280;139017;-69
2022/09/08 04:33:37;;;;;;;13.10;6.90;;;;;;;11.69;69.89;98230.48;105851;1280;22605;-69
2022/09/08 04:36:10;;;;;;;11.10;6.80;;;;;;;11.72;69.80;98235.05;105699;1280;25545;-69
2022/09/08 04:38:38;;;;;;;15.70;7.00;;;;;;;11.77;69.34;98232.64;105953;1281;22559;-69
2022/09/08 04:41:07;;;;;;;14.60;6.90;;;;;;;11.73;69.07;98229.65;106017;1281;22553;-69
2022/09/08 04:43:35;;;;;;;;;;;;;;;11.72;69.58;98227.79;105319;1281;137656;-69
2022/09/08 04:46:08;;;;;;;12.20;6.70;;;;;;;11.73;69.40;98228.40;105374;1281;24410;-69
2022/09/08 04:48:36;;;;;;;14.70;7.10;;;;;;;11.75;69.70;98220.79;105289;1280;138621;-69
2022/09/08 04:51:04;;;;;;;13.60;6.60;;;;;;;11.73;69.72;98217.50;105308;1281;22570;-69
2022/09/08 04:53:35;;;;;;;10.60;6.30;;;;;;;11.74;69.59;98217.95;105362;1281;25509;-69
2022/09/08 04:56:07;;;;;;;10.20;6.30;;;;;;;11.76;69.58;98217.95;105226;1281;138422;-69
2022/09/08 04:58:37;;;;;;;10.80;6.70;;;;;;;11.85;69.46;98220.21;105323;1281;22532;-69
2022/09/08 05:01:09;;;;;;;12.40;7.40;;;;;;;11.87;69.50;98219.52;105190;1281;138107;-69
2022/09/08 05:03:36;;;;;;;13.40;6.30;;;;;;;11.90;69.52;98228.75;105222;1284;25374;-68
2022/09/08 05:06:10;;;;;;;11.80;7.60;;;;;;;11.97;69.37;98230.78;105435;1281;25404;-69
2022/09/08 05:08:37;;;;;;;13.30;6.80;;;;;;;12.00;69.16;98232.33;105258;1281;137558;-69
2022/09/08 05:11:07;;;;;;;15.00;7.60;;;;;;;11.95;69.02;98230.98;105311;1281;25369;-69
2022/09/08 05:13:35;;;;;;;14.70;7.00;;;;;;;11.97;69.46;98221.77;105155;1281;137720;-68
2022/09/08 05:16:10;;;;;;;11.50;6.60;;;;;;;11.99;69.39;98215.68;105282;1281;23994;-68
2022/09/08 05:18:38;;;;;;;10.90;7.30;;;;;;;12.03;69.43;98217.45;105165;1281;139048;-68
2022/09/08 05:21:08;;;;;;;15.80;7.80;;;;;;;12.05;69.22;98221.02;105304;1281;23943;-68
2022/09/08 05:23:35;;;;;;;13.40;7.80;;;;;;;12.07;68.99;98223.89;105384;1281;22796;-68
2022/09/08 05:26:08;;;;;;;14.50;7.90;;;;;;;12.11;69.19;98224.90;105197;1281;137738;-68
2022/09/08 05:28:37;;;;;;;16.00;7.80;;;;;;;12.15;69.24;98225.41;105376;1281;24233;-68
2022/09/08 05:31:06;;;;;;;16.20;7.50;;;;;;;12.19;69.17;98226.22;105177;1281;137942;-68
2022/09/08 05:33:33;;;;;;;12.90;7.60;;;;;;;12.24;69.24;98230.19;105518;1281;24281;-68
2022/09/08 05:36:01;;;;;;;11.80;7.20;;;;;;;12.27;69.38;98233.64;105256;1284;22713;-68
2022/09/08 05:38:28;;;;;;;11.60;6.90;;;;;;;12.31;69.39;98231.87;105241;1281;138289;-68
2022/09/08 05:40:59;;;;;;;11.50;7.60;;;;;;;12.36;69.21;98234.20;105266;1281;24440;-68
2022/09/08 05:43:25;;;;;;;18.20;8.50;;;;;;;12.39;69.31;98232.58;105126;1281;138244;-68
2022/09/08 05:45:52;;;;;;;15.30;8.50;;;;;;;12.43;69.41;98232.44;105247;1281;22677;-68
2022/09/08 05:48:19;;;;;;;13.30;8.00;;;;;;;12.47;69.54;98233.56;105218;1281;138082;-68
2022/09/08 05:50:46;;;;;;;14.40;8.00;;;;;;;12.50;69.54;98239.11;106084;1281;22561;-68
2022/09/08 05:53:14;;;;;;;13.80;8.70;;;;;;;12.55;69.51;98239.69;105653;1281;22556;-68
2022/09/08 05:55:41;;;;;;;14.10;8.40;;;;;;;12.61;69.49;98242.45;105216;1281;137662;-68
2022/09/08 05:58:12;;;;;;;15.20;8.80;;;;;;;12.65;69.58;98237.17;105394;1281;22563;-68
2022/09/08 06:00:40;;;;;;;14.40;8.00;;;;;;;12.72;69.47;98234.15;105257;1281;140015;-68
2022/09/08 06:03:09;;;;;;;14.30;8.50;;;;;;;12.79;69.44;98230.20;105515;1281;25290;-68
2022/09/08 06:05:36;;;;;;;19.40;9.30;;;;;;;12.87;69.34;98228.45;105278;1281;22599;-68
2022/09/08 06:08:03;;;;;;;15.50;8.80;;;;;;;12.95;69.31;98228.66;105250;1281;137833;-67
2022/09/08 06:10:29;;;;;;;14.10;8.30;;;;;;;13.02;69.00;98230.98;105311;1281;25394;-68
2022/09/08 06:12:56;;;;;;;15.70;8.60;;;;;;;13.09;69.02;98226.26;105210;1283;138315;-68
2022/09/08 06:15:23;;;;;;;16.10;8.90;;;;;;;13.16;69.04;98222.01;105240;1284;25410;-67
2022/09/08 06:17:50;;;;;;;18.20;9.50;;;;;;;13.21;69.05;98222.41;105276;1281;22774;-68
2022/09/08 06:20:17;;;;;;;15.00;8.80;;;;;;;13.25;69.02;98220.67;105640;1281;137892;-68
2022/09/08 06:22:44;;;;;;;17.80;9.20;;;;;;;13.31;69.22;98217.10;105605;1281;22551;-68
2022/09/08 06:25:11;;;;;;;20.70;9.40;;;;;;;13.38;69.40;98216.05;105611;1280;138436;-68
2022/09/08 06:28:00;;;;;;;16.60;9.00;;;;;;;13.45;68.94;98208.46;105429;1281;23002;-67
2022/09/08 06:30:27;;;;;;;19.00;9.40;;;;;;;13.52;68.54;98208.75;105751;1280;138320;-68
2022/09/08 06:32:57;;;;;;;16.40;9.20;;;;;;;13.58;68.80;98203.66;105883;1280;25225;-68
2022/09/08 06:35:36;;;;;;;18.60;8.80;;;;;;;13.65;69.16;98196.79;105449;1280;24434;-68
2022/09/08 06:38:11;;;;;;;;;;;;;;;13.73;68.71;98194.66;105263;1281;137891;-68
2022/09/08 06:40:49;;;;;;;17.80;9.30;;;;;;;13.76;68.52;98194.23;106052;1281;24477;-68
2022/09/08 06:43:38;;;;;;;17.40;8.70;;;;;;;13.82;68.72;98194.79;105811;1281;138145;-68
2022/09/08 06:46:22;;;;;;;20.90;9.60;;;;;;;13.91;68.82;98193.41;106282;1280;22543;-67
2022/09/08 06:48:49;;;;;;;17.30;10.60;;;;;;;14.00;69.02;98189.03;105803;1280;138786;-68
2022/09/08 06:51:21;;;;;;;15.80;10.80;;;;;;;14.14;68.89;98187.21;105774;1281;22629;-68
2022/09/08 06:54:16;;;;;;;23.70;10.50;;;;;;;14.23;68.76;98186.98;105607;1281;22599;-68
2022/09/08 06:57:14;;;;;;;18.90;9.80;;;;;;;14.31;68.93;98186.71;105330;1281;24705;-68
2022/09/08 06:59:52;;;;;;;16.60;10.40;;;;;;;14.41;68.87;98197.17;105481;1281;22552;-67
2022/09/08 07:02:50;;;;;;;15.80;9.90;;;;;;;14.49;69.33;98198.24;105396;1280;138514;-67
2022/09/08 07:05:41;;;;;;;21.70;11.40;;;;;;;14.59;69.57;98196.48;105249;1280;29415;-67
2022/09/08 07:08:19;;;;;;;19.30;10.70;;;;;;;14.73;69.78;98188.45;105122;1281;138723;-68
2022/09/08 07:11:07;;;;;;;15.00;9.90;;;;;;;14.85;69.13;98192.91;105449;1280;24230;-69
2022/09/08 07:14:04;;;;;;;15.40;9.90;;;;;;;15.00;69.34;98191.44;105322;1280;138017;-70
2022/09/08 07:16:51;;;;;;;17.90;10.30;;;;;;;15.14;69.28;98189.29;105386;1280;22635;-68
2022/09/08 07:19:32;;;;;;;17.90;10.50;;;;;;;15.24;68.94;98184.41;105254;1281;138661;-69
2022/09/08 07:22:11;;;;;;;20.20;10.80;;;;;;;15.34;68.94;98181.89;105509;1281;25234;-69
2022/09/08 07:24:41;;;;;;;16.40;9.60;;;;;;;15.45;69.10;98173.87;105277;1281;138149;-68
2022/09/08 07:27:13;;;;;;;15.70;10.00;;;;;;;15.57;69.04;98172.14;105954;1281;22570;-75
2022/09/08 07:29:48;;;;;;;18.00;10.90;;;;;;;15.69;69.15;98166.73;105401;1281;22694;-71
2022/09/08 07:32:20;;;;;;;15.40;9.10;;;;;;;15.82;68.96;98166.52;105323;1279;138806;-74
2022/09/08 07:34:53;;;;;;;15.50;10.00;;;;;;;15.97;69.15;98169.41;105502;1280;26670;-69
2022/09/08 07:37:24;;;;;;;17.40;9.80;;;;;;;16.11;69.08;98164.45;105307;1280;138041;-69
2022/09/08 07:39:57;;;;;;;14.70;8.80;;;;;;;16.27;69.06;98168.33;105473;1281;25493;-70
2022/09/08 07:42:25;;;;;;;15.10;9.80;;;;;;;16.41;68.65;98172.19;105373;1281;138201;-69
2022/09/08 07:44:59;;;;;;;16.60;9.70;;;;;;;16.55;68.46;98173.81;105531;1280;23983;-69
2022/09/08 07:47:41;;;;;;;17.80;9.80;;;;;;;16.67;67.94;98177.91;105495;1280;25309;-69
2022/09/08 07:50:54;;;;;;;19.30;9.90;;;;;;;16.76;67.60;98172.58;105278;1281;138794;-69
2022/09/08 07:54:03;;;;;;;16.20;9.90;;;;;;;16.90;67.36;98170.52;105271;1281;22857;-69
2022/09/08 07:56:33;;;;;;;22.30;10.20;;;;;;;17.03;67.15;98163.05;105259;1281;138295;-69
2022/09/08 07:59:15;;;;;;;19.10;9.30;;;;;;;17.15;67.12;98164.67;105348;1281;22574;-69
2022/09/08 08:02:05;;;;;;;19.40;9.60;;;;;;;17.28;66.71;98167.67;105263;1281;137930;-68
2022/09/08 08:04:50;;;;;;;17.30;9.20;;;;;;;17.41;66.44;98168.70;105348;1281;23943;-69
2022/09/08 08:07:51;;;;;;;23.40;10.20;;;;;;;17.56;66.27;98165.04;106041;1280;138115;-69
2022/09/08 08:10:32;;;;;;;14.40;9.60;;;;;;;17.72;66.03;98161.63;105432;1287;22569;-69
2022/09/08 08:13:19;;;;;;;18.30;9.40;;;;;;;17.89;65.94;98159.70;104642;1287;137835;-69
2022/09/08 08:15:55;;;;;;;13.60;9.30;;;;;;;18.09;65.81;98153.69;104631;1289;22639;-69
2022/09/08 08:18:22;;;;;;;17.50;10.00;;;;;;;18.26;65.64;98151.84;104848;1287;139551;-69
2022/09/08 08:20:55;;;;;;;14.10;9.60;;;;;;;18.40;65.02;98151.27;104837;1289;22731;-69
2022/09/08 08:23:52;;;;;;;13.30;8.60;;;;;;;18.54;64.56;98147.87;104854;1289;24294;-69
2022/09/08 08:26:48;;;;;;;18.20;9.80;;;;;;;18.68;64.25;98142.47;104696;1287;137951;-69
2022/09/08 08:29:24;;;;;;;17.60;9.70;;;;;;;18.81;63.82;98138.86;104282;1292;25506;-69
2022/09/08 08:32:05;;;;;;;17.50;9.70;;;;;;;18.93;64.20;98131.08;104212;1292;138541;-69
2022/09/08 08:34:40;;;;;;;15.80;9.50;;;;;;;19.09;64.17;98122.45;104102;1293;24455;-69
2022/09/08 08:37:18;;;;;;;20.20;9.60;;;;;;;19.23;63.30;98121.66;104175;1292;138175;-69
2022/09/08 08:39:49;;;;;;;16.30;9.80;;;;;;;19.34;63.10;98124.10;104540;1292;25313;-69
2022/09/08 08:42:40;;;;;;;14.20;9.00;;;;;;;19.45;62.92;98119.98;104215;1292;138028;-69
2022/09/08 08:45:13;;;;;;;13.70;8.80;;;;;;;19.63;62.90;98115.38;104606;1291;22406;-69
2022/09/08 08:47:45;;;;;;;15.90;9.50;;;;;;;19.78;62.62;98108.73;104524;1289;24242;-68
2022/09/08 08:50:34;;;;;;;13.80;9.00;;;;;;;19.93;62.97;98104.18;104577;1287;138436;-69
2022/09/08 08:53:10;;;;;;;;;;;;;;;20.08;62.01;98096.66;104956;1287;22581;-70
2022/09/08 08:56:36;;;;;;;18.00;9.10;;;;;;;20.19;61.80;98095.80;105230;1289;126496;-69
2022/09/08 08:59:05;;;;;;;11.80;8.90;;;;;;;20.37;61.56;98095.83;104359;1296;22715;-69
2022/09/08 09:01:58;;;;;;;15.50;7.80;;;;;;;20.50;61.11;98088.39;103537;1298;138497;-69
2022/09/08 09:04:48;;;;;;;15.60;9.30;;;;;;;20.64;60.96;98091.34;103784;1297;22681;-69
2022/09/08 09:07:40;;;;;;;14.60;8.50;;;;;;;20.75;60.07;98093.37;103839;1294;138214;-68
2022/09/08 09:10:13;;;;;;;11.70;8.50;;;;;;;20.87;60.24;98088.52;103704;1293;22776;-68
2022/09/08 09:12:58;;;;;;;10.40;7.80;;;;;;;20.99;60.22;98087.43;103580;1294;138695;-69
2022/09/08 09:15:37;;;;;;;10.10;7.90;;;;;;;21.15;60.28;98085.00;103668;1294;24417;-68
2022/09/08 09:18:34;;;;;;;11.80;8.00;;;;;;;21.31;60.57;98087.64;103932;1293;25347;-68
2022/09/08 09:21:10;;;;;;;14.50;8.10;;;;;;;21.51;60.54;98081.99;104360;1293;22585;-69
2022/09/08 09:24:12;;;;;;;11.10;7.60;;;;;;;21.70;60.46;98077.61;104652;1292;22559;-69
2022/09/08 09:26:48;;;;;;;11.30;7.80;;;;;;;21.91;59.86;98076.96;103568;1298;137884;-69
2022/09/08 09:29:20;;;;;;;10.50;7.80;;;;;;;22.07;59.65;98074.80;103555;1298;23021;-69
2022/09/08 09:32:19;;;;;;;12.60;8.20;;;;;;;22.25;59.56;98072.87;103874;1298;138102;-69
2022/09/08 09:35:07;;;;;;;10.00;8.00;;;;;;;22.43;58.74;98068.80;104484;1293;25450;-69
2022/09/08 09:37:43;;;;;;;11.80;8.10;;;;;;;22.59;58.27;98067.95;105232;1287;138237;-69
2022/09/08 09:40:31;;;;;;;13.00;8.00;;;;;;;22.74;57.68;98066.20;105225;1287;25455;-68
2022/09/08 09:42:57;;;;;;;11.50;7.50;;;;;;;22.89;57.30;98067.55;105406;1287;139421;-69
2022/09/08 09:45:36;;;;;;;11.80;7.40;;;;;;;23.01;56.94;98061.30;105679;1287;24285;-68
2022/09/08 09:48:40;;;;;;;9.50;6.60;;;;;;;23.14;56.66;98059.67;104871;1287;22596;-68
2022/09/08 09:51:29;;;;;;;11.70;7.20;;;;;;;23.28;56.59;98057.43;104858;1287;25318;-68
2022/09/08 09:54:33;;;;;;;8.50;6.90;;;;;;;23.39;56.14;98051.02;104907;1287;24343;-68
2022/09/08 09:57:19;;;;;;;9.30;7.50;;;;;;;23.49;56.04;98052.11;104781;1287;22623;-68
2022/09/08 10:00:20;;;;;;;11.60;7.40;;;;;;;23.56;55.95;98047.19;104834;1287;22571;-68
2022/09/08 10:02:56;;;;;;;12.20;8.10;;;;;;;23.67;55.97;98050.77;104775;1288;22556;-69
2022/09/08 10:05:52;;;;;;;10.70;7.00;;;;;;;23.77;55.89;98048.09;105421;1281;23190;-68
2022/09/08 10:08:22;;;;;;;10.80;8.10;;;;;;;23.92;55.98;98048.65;105253;1281;138087;-67
2022/09/08 10:11:10;;;;;;;10.00;8.20;;;;;;;24.05;55.52;98047.75;105418;1280;25367;-68
2022/09/08 10:13:37;;;;;;;;;;;;;;;24.22;55.84;98041.50;105387;1280;138173;-67
2022/09/08 10:16:22;;;;;;;8.70;7.20;;;;;;;24.35;55.31;98042.89;105381;1281;25238;-67
2022/09/08 10:18:55;;;;;;;10.40;7.60;;;;;;;24.49;54.87;98041.84;105247;1281;137901;-67
2022/09/08 10:21:31;;;;;;;10.60;7.80;;;;;;;24.62;54.39;98042.46;105430;1281;26612;-67
2022/09/08 10:23:58;;;;;;;11.50;7.20;;;;;;;24.75;54.28;98040.57;105373;1281;22623;-67
2022/09/08 10:26:47;;;;;;;9.00;7.20;;;;;;;24.90;54.37;98042.48;105283;1281;138082;-67
2022/09/08 10:29:22;;;;;;;;;;;;;;;25.07;54.08;98041.89;105361;1283;23014;-67
2022/09/08 10:32:12;;;;;;;10.30;7.50;;;;;;;25.20;53.66;98038.59;105314;1281;124416;-67
2022/09/08 10:34:55;;;;;;;13.50;8.60;;;;;;;25.34;53.40;98037.84;105408;1281;22582;-67
2022/09/08 10:37:28;;;;;;;15.20;7.90;;;;;;;25.47;52.91;98037.90;105259;1281;138044;-67
2022/09/08 10:40:13;;;;;;;10.40;7.60;;;;;;;25.59;52.93;98030.17;105361;1281;29518;-67
2022/09/08 10:42:48;;;;;;;11.30;8.30;;;;;;;25.71;52.77;98022.80;105447;1280;138032;-68
2022/09/08 10:45:24;;;;;;;10.20;7.70;;;;;;;25.81;52.74;98021.73;105345;1281;25221;-67
2022/09/08 10:48:01;;;;;;;10.20;8.20;;;;;;;25.90;51.97;98022.06;105379;1280;24081;-68
2022/09/08 10:50:32;;;;;;;13.70;8.40;;;;;;;25.98;51.96;98015.98;105270;1281;137901;-67
2022/09/08 10:53:24;;;;;;;9.60;8.00;;;;;;;26.06;51.31;98023.13;105407;1283;24469;-67
2022/09/08 10:56:13;;;;;;;12.30;9.10;;;;;;;26.12;50.82;98019.30;105237;1283;138681;-67
2022/09/08 10:58:52;;;;;;;11.80;8.90;;;;;;;26.19;51.22;98021.30;105355;1283;24109;-67
2022/09/08 11:01:28;;;;;;;11.90;8.10;;;;;;;26.27;50.61;98011.54;105284;1280;137647;-68
2022/09/08 11:04:22;;;;;;;10.20;8.30;;;;;;;26.36;50.77;98005.96;105423;1278;22534;-67
2022/09/08 11:07:14;;;;;;;14.70;9.50;;;;;;;26.48;50.48;98004.23;105213;1283;138239;-67
2022/09/08 11:10:25;;;;;;;12.10;9.20;;;;;;;26.49;49.89;98001.40;105076;1283;24394;-67
2022/09/08 11:13:39;;;;;;;15.60;8.50;;;;;;;26.56;50.02;98000.52;105266;1281;138313;-68
2022/09/08 11:16:44;;;;;;;11.00;8.60;;;;;;;26.63;50.51;97994.48;104812;1287;26759;-67
2022/09/08 11:19:20;;;;;;;10.70;9.10;;;;;;;26.77;50.35;97993.30;104671;1287;137751;-67
2022/09/08 11:22:21;;;;;;;11.10;9.20;;;;;;;26.85;49.98;97987.09;104839;1287;24234;-67
2022/09/08 11:25:32;;;;;;;12.70;9.30;;;;;;;26.94;49.61;97990.55;104662;1287;137944;-67
2022/09/08 11:28:30;;;;;;;12.50;9.30;;;;;;;27.07;49.88;97985.48;104804;1287;22549;-67
2022/09/08 11:31:04;;;;;;;10.80;9.40;;;;;;;27.22;50.06;97982.85;104949;1286;138471;-68
2022/09/08 11:33:55;;;;;;;12.30;9.50;;;;;;;27.36;49.54;97979.97;104853;1286;24120;-67
2022/09/08 11:37:00;;;;;;;12.10;9.00;;;;;;;27.49;49.28;97973.68;104709;1286;138339;-68
2022/09/08 11:39:27;;;;;;;14.00;8.90;;;;;;;27.61;49.13;97969.52;104943;1285;24234;-67
2022/09/08 11:41:54;;;;;;;9.60;8.40;;;;;;;27.75;49.45;97963.77;104998;1286;22754;-68
2022/09/08 11:44:26;;;;;;;9.40;8.30;;;;;;;27.85;48.93;97959.16;105259;1286;137810;-67
2022/09/08 11:47:05;;;;;;;9.90;8.90;;;;;;;27.99;49.31;97957.68;104947;1286;22851;-67
2022/09/08 11:49:36;;;;;;;10.00;8.20;;;;;;;28.10;48.20;97961.22;104717;1287;137693;-67
2022/09/08 11:52:05;;;;;;;10.20;8.60;;;;;;;28.11;47.56;97963.40;104818;1286;25417;-67
2022/09/08 11:54:53;;;;;;;10.90;8.60;;;;;;;28.19;47.49;97959.53;105356;1281;138452;-67